Aérodrome :
LOGIN :

S'inscrire | Disclaimer

   EN    FR    IT 

 










Légende :    VFR   VFR Marginal   IFR   IFR Intensif   IFR Très Intensif
Visi : 
Plafond : 
>= 8 km
>= 3000ft
5 à 8 km
1000 à 3000 ft
1500m à 5 km
500 à 1000 ft
800 à 1500m
200 à 500 ft
< 800m
< 200 ft
Symboles :   Orages  Brouillard  Fortes neiges  Fortes précipitations  Vent > 20 kt
SIGMETs :   Divers  Orages  Givrage  Turbulence  Onde Orograph.  Cendres Volcan.







- Altitude de l'aérodrome : 17 ft
- Code IATA : MPL
- Voir les cartes d'approche


LFMT - Montpellier Méditerranée

DERNIER METAR :
  • 152000Z AUTO 01009KT CAVOK 26/10 Q1012 NOSIG

METARs EXPIRÉS :
  • 151930Z AUTO 35010KT CAVOK 27/10 Q1012 NOSIG
  • 151900Z AUTO 36015KT CAVOK 28/10 Q1011 NOSIG
  • 151830Z AUTO 01013KT CAVOK 29/10 Q1011 NOSIG
  • 151800Z AUTO 02013KT CAVOK 29/11 Q1010 NOSIG
  • 151730Z AUTO 02016KT 350V050 CAVOK 30/11 Q1010 NOSIG

TAF TAF LFMT
Valide du 15 à 21h jusqu'au 16 à 21h UTC


152000Z 1521/1621 35010KT CAVOK
BECMG 1609/1611 18012KT
ATIS : +33 4 67 13 11 70
Pas de NOTAMs connus pour ce terrain.
2 SIGMETs publiés pour la FIR Marseille (LFMM) :
 
Orages noyés dans la masse
LFMM SIGMET 16 VALID 152000/160000 LFPW
LFMM MARSEILLE FIR/UIR EMBD TS FCST WI N4245 E00945 - N4115 E00945 - N4115 E00845 - N4230 E00900 - N4245 E00945 TOP FL320 MOV SE 15KT WKN=
Turbulence forte
LFMM SIGMET 14 VALID 151800/152000 LFPW
LFMM MARSEILLE FIR/UIR SEV TURB FCST WI N4430 E00700 - N4400 E00700 - N4415 E00615 - N4430 E00700 SFC/FL100 STNR NC=



MET'MAP, la Météo Aéronautique d'un coup d'oeil ! - Copyright ORBIFLY Décembre 2007 - Disclaimer

ORBIFLY MET'MAP TEAM :

Programmation & Développement : Alexandra Zaïnal
Conception & Développement : Baudouin d'Aumeries
Co-Programmation & Développement : Marc-Olivier Méhu
Soutien technique & logistique : Manuel Goepfert

Contact : metmap@orbifly.com




SOURCES & CREDITS :

   NOAA